sensor_id;sensor_type;location;lat;lon;timestamp;P1;durP1;ratioP1;P2;durP2;ratioP2
41875;SDS011;27555;50.808;4.402;2023-04-25T00:01:03;14.10;;;2.53;;
41875;SDS011;27555;50.808;4.402;2023-04-25T00:03:30;12.55;;;3.22;;
41875;SDS011;27555;50.808;4.402;2023-04-25T00:05:56;13.50;;;3.05;;
41875;SDS011;27555;50.808;4.402;2023-04-25T00:08:26;13.55;;;3.33;;
41875;SDS011;27555;50.808;4.402;2023-04-25T00:10:53;16.13;;;2.88;;
41875;SDS011;27555;50.808;4.402;2023-04-25T00:13:19;18.25;;;3.15;;
41875;SDS011;27555;50.808;4.402;2023-04-25T00:15:45;11.80;;;2.97;;
41875;SDS011;27555;50.808;4.402;2023-04-25T00:18:11;16.80;;;4.35;;
41875;SDS011;27555;50.808;4.402;2023-04-25T00:20:36;14.98;;;2.63;;
41875;SDS011;27555;50.808;4.402;2023-04-25T00:23:02;14.57;;;4.32;;
41875;SDS011;27555;50.808;4.402;2023-04-25T00:25:29;19.58;;;3.58;;
41875;SDS011;27555;50.808;4.402;2023-04-25T00:27:55;23.40;;;4.78;;
41875;SDS011;27555;50.808;4.402;2023-04-25T00:30:21;18.25;;;3.67;;
41875;SDS011;27555;50.808;4.402;2023-04-25T00:32:46;14.07;;;2.75;;
41875;SDS011;27555;50.808;4.402;2023-04-25T00:35:12;18.05;;;3.03;;
41875;SDS011;27555;50.808;4.402;2023-04-25T00:37:37;26.30;;;4.80;;
41875;SDS011;27555;50.808;4.402;2023-04-25T00:40:04;12.73;;;3.15;;
41875;SDS011;27555;50.808;4.402;2023-04-25T00:42:31;15.88;;;3.40;;
41875;SDS011;27555;50.808;4.402;2023-04-25T00:44:57;11.43;;;3.05;;
41875;SDS011;27555;50.808;4.402;2023-04-25T00:47:24;14.00;;;2.88;;
41875;SDS011;27555;50.808;4.402;2023-04-25T00:49:50;14.43;;;3.67;;
41875;SDS011;27555;50.808;4.402;2023-04-25T00:52:16;14.98;;;3.63;;
41875;SDS011;27555;50.808;4.402;2023-04-25T00:54:42;21.83;;;3.55;;
41875;SDS011;27555;50.808;4.402;2023-04-25T00:57:08;22.60;;;3.65;;
41875;SDS011;27555;50.808;4.402;2023-04-25T00:59:33;28.40;;;4.38;;
41875;SDS011;27555;50.808;4.402;2023-04-25T01:02:00;19.65;;;4.70;;
41875;SDS011;27555;50.808;4.402;2023-04-25T01:04:29;15.48;;;3.70;;
41875;SDS011;27555;50.808;4.402;2023-04-25T01:06:54;20.00;;;5.13;;
41875;SDS011;27555;50.808;4.402;2023-04-25T01:09:20;21.80;;;3.42;;
41875;SDS011;27555;50.808;4.402;2023-04-25T01:11:48;18.58;;;3.00;;
41875;SDS011;27555;50.808;4.402;2023-04-25T01:14:14;15.18;;;3.22;;
41875;SDS011;27555;50.808;4.402;2023-04-25T01:16:39;18.85;;;5.65;;
41875;SDS011;27555;50.808;4.402;2023-04-25T01:19:09;19.38;;;3.80;;
41875;SDS011;27555;50.808;4.402;2023-04-25T01:21:39;21.17;;;3.85;;
41875;SDS011;27555;50.808;4.402;2023-04-25T01:24:05;22.70;;;3.67;;
41875;SDS011;27555;50.808;4.402;2023-04-25T01:26:31;24.95;;;3.72;;
41875;SDS011;27555;50.808;4.402;2023-04-25T01:28:57;18.48;;;4.00;;
41875;SDS011;27555;50.808;4.402;2023-04-25T01:31:23;20.30;;;3.80;;
41875;SDS011;27555;50.808;4.402;2023-04-25T01:33:49;29.30;;;7.05;;
41875;SDS011;27555;50.808;4.402;2023-04-25T01:36:15;21.17;;;4.30;;
41875;SDS011;27555;50.808;4.402;2023-04-25T01:38:40;19.02;;;3.95;;
41875;SDS011;27555;50.808;4.402;2023-04-25T01:41:06;16.55;;;3.65;;
41875;SDS011;27555;50.808;4.402;2023-04-25T01:43:32;17.77;;;4.15;;
41875;SDS011;27555;50.808;4.402;2023-04-25T01:45:58;22.35;;;4.47;;
41875;SDS011;27555;50.808;4.402;2023-04-25T01:48:24;22.02;;;3.72;;
41875;SDS011;27555;50.808;4.402;2023-04-25T01:50:50;13.63;;;3.42;;
41875;SDS011;27555;50.808;4.402;2023-04-25T01:53:16;23.52;;;5.15;;
41875;SDS011;27555;50.808;4.402;2023-04-25T01:55:41;23.55;;;4.82;;
41875;SDS011;27555;50.808;4.402;2023-04-25T01:58:07;15.85;;;3.50;;
41875;SDS011;27555;50.808;4.402;2023-04-25T02:00:34;18.77;;;2.90;;
41875;SDS011;27555;50.808;4.402;2023-04-25T02:03:03;20.98;;;3.25;;
41875;SDS011;27555;50.808;4.402;2023-04-25T02:05:28;14.75;;;3.30;;
41875;SDS011;27555;50.808;4.402;2023-04-25T02:08:00;16.95;;;3.67;;
41875;SDS011;27555;50.808;4.402;2023-04-25T02:10:25;14.15;;;3.45;;
41875;SDS011;27555;50.808;4.402;2023-04-25T02:12:51;16.92;;;3.83;;
41875;SDS011;27555;50.808;4.402;2023-04-25T02:15:16;20.33;;;3.97;;
41875;SDS011;27555;50.808;4.402;2023-04-25T02:17:42;19.23;;;3.70;;
41875;SDS011;27555;50.808;4.402;2023-04-25T02:20:10;18.55;;;3.70;;
41875;SDS011;27555;50.808;4.402;2023-04-25T02:22:36;20.17;;;3.70;;
41875;SDS011;27555;50.808;4.402;2023-04-25T02:25:02;25.40;;;4.68;;
41875;SDS011;27555;50.808;4.402;2023-04-25T02:27:29;22.27;;;5.00;;
41875;SDS011;27555;50.808;4.402;2023-04-25T02:29:55;13.48;;;3.85;;
41875;SDS011;27555;50.808;4.402;2023-04-25T02:32:21;13.85;;;3.58;;
41875;SDS011;27555;50.808;4.402;2023-04-25T02:34:46;16.45;;;4.20;;
41875;SDS011;27555;50.808;4.402;2023-04-25T02:37:13;15.35;;;4.28;;
41875;SDS011;27555;50.808;4.402;2023-04-25T02:39:38;20.88;;;4.13;;
41875;SDS011;27555;50.808;4.402;2023-04-25T02:42:04;17.45;;;3.45;;
41875;SDS011;27555;50.808;4.402;2023-04-25T02:44:30;18.98;;;4.20;;
41875;SDS011;27555;50.808;4.402;2023-04-25T02:46:55;14.57;;;3.30;;
41875;SDS011;27555;50.808;4.402;2023-04-25T02:49:21;22.20;;;3.47;;
41875;SDS011;27555;50.808;4.402;2023-04-25T02:51:47;19.88;;;4.03;;
41875;SDS011;27555;50.808;4.402;2023-04-25T02:54:12;20.17;;;3.63;;
41875;SDS011;27555;50.808;4.402;2023-04-25T02:56:38;12.77;;;3.60;;
41875;SDS011;27555;50.808;4.402;2023-04-25T02:59:03;27.10;;;5.30;;
41875;SDS011;27555;50.808;4.402;2023-04-25T03:01:29;28.75;;;3.88;;
41875;SDS011;27555;50.808;4.402;2023-04-25T03:03:55;23.70;;;4.78;;
41875;SDS011;27555;50.808;4.402;2023-04-25T03:06:20;18.98;;;4.35;;
41875;SDS011;27555;50.808;4.402;2023-04-25T03:08:46;18.95;;;4.85;;
41875;SDS011;27555;50.808;4.402;2023-04-25T03:11:11;15.98;;;4.68;;
41875;SDS011;27555;50.808;4.402;2023-04-25T03:13:37;18.00;;;5.03;;
41875;SDS011;27555;50.808;4.402;2023-04-25T03:16:03;22.23;;;4.55;;
41875;SDS011;27555;50.808;4.402;2023-04-25T03:18:28;20.35;;;5.00;;
41875;SDS011;27555;50.808;4.402;2023-04-25T03:20:54;17.08;;;4.75;;
41875;SDS011;27555;50.808;4.402;2023-04-25T03:23:20;20.63;;;4.93;;
41875;SDS011;27555;50.808;4.402;2023-04-25T03:25:46;22.15;;;4.45;;
41875;SDS011;27555;50.808;4.402;2023-04-25T03:28:11;24.15;;;5.65;;
41875;SDS011;27555;50.808;4.402;2023-04-25T03:30:37;29.27;;;5.65;;
41875;SDS011;27555;50.808;4.402;2023-04-25T03:33:02;29.20;;;4.72;;
41875;SDS011;27555;50.808;4.402;2023-04-25T03:35:28;17.35;;;4.00;;
41875;SDS011;27555;50.808;4.402;2023-04-25T03:37:54;28.77;;;5.75;;
41875;SDS011;27555;50.808;4.402;2023-04-25T03:40:19;23.50;;;5.10;;
41875;SDS011;27555;50.808;4.402;2023-04-25T03:42:45;14.15;;;4.15;;
41875;SDS011;27555;50.808;4.402;2023-04-25T03:45:11;21.63;;;4.38;;
41875;SDS011;27555;50.808;4.402;2023-04-25T03:47:36;15.55;;;3.58;;
41875;SDS011;27555;50.808;4.402;2023-04-25T03:50:02;18.33;;;3.85;;
41875;SDS011;27555;50.808;4.402;2023-04-25T03:52:27;21.98;;;3.45;;
41875;SDS011;27555;50.808;4.402;2023-04-25T03:54:53;15.35;;;3.13;;
41875;SDS011;27555;50.808;4.402;2023-04-25T03:57:19;15.85;;;4.05;;
41875;SDS011;27555;50.808;4.402;2023-04-25T03:59:44;19.27;;;3.80;;
41875;SDS011;27555;50.808;4.402;2023-04-25T04:02:10;26.27;;;3.95;;
41875;SDS011;27555;50.808;4.402;2023-04-25T04:04:36;17.98;;;3.40;;
41875;SDS011;27555;50.808;4.402;2023-04-25T04:07:02;22.55;;;4.68;;
41875;SDS011;27555;50.808;4.402;2023-04-25T04:09:28;18.50;;;3.00;;
41875;SDS011;27555;50.808;4.402;2023-04-25T04:11:53;15.80;;;3.25;;
41875;SDS011;27555;50.808;4.402;2023-04-25T04:14:19;16.92;;;3.95;;
41875;SDS011;27555;50.808;4.402;2023-04-25T04:16:45;13.43;;;4.40;;
41875;SDS011;27555;50.808;4.402;2023-04-25T04:19:10;13.82;;;4.15;;
41875;SDS011;27555;50.808;4.402;2023-04-25T04:21:36;18.23;;;4.97;;
41875;SDS011;27555;50.808;4.402;2023-04-25T04:24:01;17.00;;;4.10;;
41875;SDS011;27555;50.808;4.402;2023-04-25T04:26:28;25.35;;;7.95;;
41875;SDS011;27555;50.808;4.402;2023-04-25T04:28:53;22.48;;;5.20;;
41875;SDS011;27555;50.808;4.402;2023-04-25T04:31:20;17.90;;;4.63;;
41875;SDS011;27555;50.808;4.402;2023-04-25T04:33:46;14.55;;;4.38;;
41875;SDS011;27555;50.808;4.402;2023-04-25T04:36:12;22.67;;;4.63;;
41875;SDS011;27555;50.808;4.402;2023-04-25T04:38:38;22.13;;;4.53;;
41875;SDS011;27555;50.808;4.402;2023-04-25T04:41:05;16.38;;;5.70;;
41875;SDS011;27555;50.808;4.402;2023-04-25T04:43:31;20.77;;;4.07;;
41875;SDS011;27555;50.808;4.402;2023-04-25T04:45:58;17.30;;;4.25;;
41875;SDS011;27555;50.808;4.402;2023-04-25T04:48:25;21.63;;;4.30;;
41875;SDS011;27555;50.808;4.402;2023-04-25T04:50:51;19.88;;;4.30;;
41875;SDS011;27555;50.808;4.402;2023-04-25T04:53:16;19.42;;;4.22;;
41875;SDS011;27555;50.808;4.402;2023-04-25T04:55:42;15.48;;;4.13;;
41875;SDS011;27555;50.808;4.402;2023-04-25T04:58:08;23.20;;;4.00;;
41875;SDS011;27555;50.808;4.402;2023-04-25T05:00:34;19.00;;;4.78;;
41875;SDS011;27555;50.808;4.402;2023-04-25T05:02:59;26.30;;;4.63;;
41875;SDS011;27555;50.808;4.402;2023-04-25T05:05:25;18.23;;;4.93;;
41875;SDS011;27555;50.808;4.402;2023-04-25T05:07:51;19.05;;;4.20;;
41875;SDS011;27555;50.808;4.402;2023-04-25T05:10:17;16.58;;;4.28;;
41875;SDS011;27555;50.808;4.402;2023-04-25T05:12:43;15.48;;;3.78;;
41875;SDS011;27555;50.808;4.402;2023-04-25T05:15:09;20.55;;;5.10;;
41875;SDS011;27555;50.808;4.402;2023-04-25T05:17:35;27.40;;;4.85;;
41875;SDS011;27555;50.808;4.402;2023-04-25T05:20:01;28.77;;;5.13;;
41875;SDS011;27555;50.808;4.402;2023-04-25T05:22:26;17.77;;;3.55;;
41875;SDS011;27555;50.808;4.402;2023-04-25T05:24:52;23.05;;;4.18;;
41875;SDS011;27555;50.808;4.402;2023-04-25T05:27:18;15.70;;;4.15;;
41875;SDS011;27555;50.808;4.402;2023-04-25T05:29:44;20.02;;;4.03;;
41875;SDS011;27555;50.808;4.402;2023-04-25T05:32:10;18.20;;;4.55;;
41875;SDS011;27555;50.808;4.402;2023-04-25T05:34:36;32.95;;;5.43;;
41875;SDS011;27555;50.808;4.402;2023-04-25T05:37:01;23.83;;;5.35;;
41875;SDS011;27555;50.808;4.402;2023-04-25T05:39:27;17.00;;;3.90;;
41875;SDS011;27555;50.808;4.402;2023-04-25T05:41:53;19.40;;;3.75;;
41875;SDS011;27555;50.808;4.402;2023-04-25T05:44:19;16.73;;;3.35;;
41875;SDS011;27555;50.808;4.402;2023-04-25T05:46:46;15.75;;;4.00;;
41875;SDS011;27555;50.808;4.402;2023-04-25T05:49:12;11.52;;;2.58;;
41875;SDS011;27555;50.808;4.402;2023-04-25T05:51:37;11.02;;;3.08;;
41875;SDS011;27555;50.808;4.402;2023-04-25T05:54:03;11.65;;;3.33;;
41875;SDS011;27555;50.808;4.402;2023-04-25T05:56:29;16.90;;;4.15;;
41875;SDS011;27555;50.808;4.402;2023-04-25T05:58:55;16.40;;;3.35;;
41875;SDS011;27555;50.808;4.402;2023-04-25T06:01:21;14.13;;;3.22;;
41875;SDS011;27555;50.808;4.402;2023-04-25T06:03:48;11.55;;;2.60;;
41875;SDS011;27555;50.808;4.402;2023-04-25T06:06:13;15.73;;;3.67;;
41875;SDS011;27555;50.808;4.402;2023-04-25T06:08:39;13.77;;;3.40;;
41875;SDS011;27555;50.808;4.402;2023-04-25T06:11:05;10.93;;;3.88;;
41875;SDS011;27555;50.808;4.402;2023-04-25T06:13:31;14.77;;;2.78;;
41875;SDS011;27555;50.808;4.402;2023-04-25T06:15:57;10.75;;;2.95;;
41875;SDS011;27555;50.808;4.402;2023-04-25T06:18:22;23.08;;;4.18;;
41875;SDS011;27555;50.808;4.402;2023-04-25T06:20:48;14.50;;;4.05;;
41875;SDS011;27555;50.808;4.402;2023-04-25T06:23:13;11.30;;;3.83;;
41875;SDS011;27555;50.808;4.402;2023-04-25T06:25:39;14.98;;;2.97;;
41875;SDS011;27555;50.808;4.402;2023-04-25T06:28:05;12.73;;;3.50;;
41875;SDS011;27555;50.808;4.402;2023-04-25T06:30:30;22.80;;;4.03;;
41875;SDS011;27555;50.808;4.402;2023-04-25T06:32:56;17.50;;;3.90;;
41875;SDS011;27555;50.808;4.402;2023-04-25T06:35:21;18.50;;;3.13;;
41875;SDS011;27555;50.808;4.402;2023-04-25T06:37:47;14.38;;;4.38;;
41875;SDS011;27555;50.808;4.402;2023-04-25T06:40:13;25.05;;;4.18;;
41875;SDS011;27555;50.808;4.402;2023-04-25T06:42:38;17.13;;;4.78;;
41875;SDS011;27555;50.808;4.402;2023-04-25T06:45:04;22.25;;;5.55;;
41875;SDS011;27555;50.808;4.402;2023-04-25T06:47:30;17.23;;;4.85;;
41875;SDS011;27555;50.808;4.402;2023-04-25T06:49:55;13.20;;;4.35;;
41875;SDS011;27555;50.808;4.402;2023-04-25T06:52:21;16.27;;;5.10;;
41875;SDS011;27555;50.808;4.402;2023-04-25T06:54:47;16.38;;;4.65;;
41875;SDS011;27555;50.808;4.402;2023-04-25T06:57:12;20.00;;;4.20;;
41875;SDS011;27555;50.808;4.402;2023-04-25T06:59:38;23.55;;;4.43;;
41875;SDS011;27555;50.808;4.402;2023-04-25T07:02:04;14.30;;;2.90;;
41875;SDS011;27555;50.808;4.402;2023-04-25T07:04:31;18.70;;;3.53;;
41875;SDS011;27555;50.808;4.402;2023-04-25T07:06:56;16.13;;;3.67;;
41875;SDS011;27555;50.808;4.402;2023-04-25T07:09:22;27.02;;;6.07;;
41875;SDS011;27555;50.808;4.402;2023-04-25T07:11:48;22.10;;;4.63;;
41875;SDS011;27555;50.808;4.402;2023-04-25T07:14:13;17.52;;;4.00;;
41875;SDS011;27555;50.808;4.402;2023-04-25T07:16:40;11.82;;;3.20;;
41875;SDS011;27555;50.808;4.402;2023-04-25T07:19:06;15.65;;;4.10;;
41875;SDS011;27555;50.808;4.402;2023-04-25T07:21:32;15.57;;;3.25;;
41875;SDS011;27555;50.808;4.402;2023-04-25T07:23:57;14.40;;;2.53;;
41875;SDS011;27555;50.808;4.402;2023-04-25T07:26:23;13.85;;;2.60;;
41875;SDS011;27555;50.808;4.402;2023-04-25T07:28:49;16.23;;;3.40;;
41875;SDS011;27555;50.808;4.402;2023-04-25T07:31:16;14.13;;;3.33;;
41875;SDS011;27555;50.808;4.402;2023-04-25T07:33:43;16.48;;;3.55;;
41875;SDS011;27555;50.808;4.402;2023-04-25T07:36:10;9.13;;;3.22;;
41875;SDS011;27555;50.808;4.402;2023-04-25T07:38:37;14.98;;;3.10;;
41875;SDS011;27555;50.808;4.402;2023-04-25T07:41:03;12.57;;;2.47;;
41875;SDS011;27555;50.808;4.402;2023-04-25T07:43:29;10.70;;;2.42;;
41875;SDS011;27555;50.808;4.402;2023-04-25T07:45:55;6.63;;;2.08;;
41875;SDS011;27555;50.808;4.402;2023-04-25T07:48:21;17.27;;;3.05;;
41875;SDS011;27555;50.808;4.402;2023-04-25T07:50:47;14.00;;;2.92;;
41875;SDS011;27555;50.808;4.402;2023-04-25T07:53:13;14.05;;;2.25;;
41875;SDS011;27555;50.808;4.402;2023-04-25T07:55:39;8.48;;;2.83;;
41875;SDS011;27555;50.808;4.402;2023-04-25T07:58:05;12.95;;;2.40;;
41875;SDS011;27555;50.808;4.402;2023-04-25T08:00:35;11.27;;;2.75;;
41875;SDS011;27555;50.808;4.402;2023-04-25T08:03:01;14.68;;;2.90;;
41875;SDS011;27555;50.808;4.402;2023-04-25T08:05:27;15.27;;;2.83;;
41875;SDS011;27555;50.808;4.402;2023-04-25T08:07:53;10.32;;;2.80;;
41875;SDS011;27555;50.808;4.402;2023-04-25T08:10:19;7.55;;;2.05;;
41875;SDS011;27555;50.808;4.402;2023-04-25T08:12:44;14.18;;;2.95;;
41875;SDS011;27555;50.808;4.402;2023-04-25T08:15:10;13.23;;;2.67;;
41875;SDS011;27555;50.808;4.402;2023-04-25T08:17:36;14.60;;;2.67;;
41875;SDS011;27555;50.808;4.402;2023-04-25T08:20:01;9.02;;;2.28;;
41875;SDS011;27555;50.808;4.402;2023-04-25T08:22:30;14.40;;;3.53;;
41875;SDS011;27555;50.808;4.402;2023-04-25T08:24:56;15.48;;;3.05;;
41875;SDS011;27555;50.808;4.402;2023-04-25T08:27:21;12.85;;;2.72;;
41875;SDS011;27555;50.808;4.402;2023-04-25T08:29:48;16.17;;;2.67;;
41875;SDS011;27555;50.808;4.402;2023-04-25T08:32:15;15.68;;;3.42;;
41875;SDS011;27555;50.808;4.402;2023-04-25T08:34:41;13.65;;;2.28;;
41875;SDS011;27555;50.808;4.402;2023-04-25T08:37:08;15.90;;;2.53;;
41875;SDS011;27555;50.808;4.402;2023-04-25T08:39:35;15.00;;;2.60;;
41875;SDS011;27555;50.808;4.402;2023-04-25T08:42:01;15.80;;;3.50;;
41875;SDS011;27555;50.808;4.402;2023-04-25T08:44:31;12.82;;;1.92;;
41875;SDS011;27555;50.808;4.402;2023-04-25T08:46:59;8.85;;;2.90;;
41875;SDS011;27555;50.808;4.402;2023-04-25T08:49:24;13.23;;;2.50;;
41875;SDS011;27555;50.808;4.402;2023-04-25T08:51:51;9.63;;;2.08;;
41875;SDS011;27555;50.808;4.402;2023-04-25T08:54:18;7.07;;;1.73;;
41875;SDS011;27555;50.808;4.402;2023-04-25T08:56:49;11.45;;;2.30;;
41875;SDS011;27555;50.808;4.402;2023-04-25T08:59:15;15.82;;;3.30;;
41875;SDS011;27555;50.808;4.402;2023-04-25T09:01:42;13.55;;;2.30;;
41875;SDS011;27555;50.808;4.402;2023-04-25T09:04:08;16.30;;;2.88;;
41875;SDS011;27555;50.808;4.402;2023-04-25T09:06:33;9.38;;;2.10;;
41875;SDS011;27555;50.808;4.402;2023-04-25T09:09:04;5.75;;;1.70;;
41875;SDS011;27555;50.808;4.402;2023-04-25T09:11:31;8.77;;;2.50;;
41875;SDS011;27555;50.808;4.402;2023-04-25T09:14:10;15.57;;;2.63;;
41875;SDS011;27555;50.808;4.402;2023-04-25T09:17:22;7.20;;;2.03;;
41875;SDS011;27555;50.808;4.402;2023-04-25T09:19:26;11.68;;;3.03;;
41875;SDS011;27555;50.808;4.402;2023-04-25T09:24:34;10.77;;;2.45;;
41875;SDS011;27555;50.808;4.402;2023-04-25T09:27:12;11.63;;;2.15;;
41875;SDS011;27555;50.808;4.402;2023-04-25T09:29:42;17.67;;;2.00;;
41875;SDS011;27555;50.808;4.402;2023-04-25T09:32:15;10.35;;;1.75;;
41875;SDS011;27555;50.808;4.402;2023-04-25T09:34:50;9.65;;;2.55;;
41875;SDS011;27555;50.808;4.402;2023-04-25T09:37:22;9.43;;;1.63;;
41875;SDS011;27555;50.808;4.402;2023-04-25T09:39:55;13.52;;;2.95;;
41875;SDS011;27555;50.808;4.402;2023-04-25T09:42:30;9.07;;;2.22;;
41875;SDS011;27555;50.808;4.402;2023-04-25T09:44:57;10.55;;;1.80;;
41875;SDS011;27555;50.808;4.402;2023-04-25T09:47:26;9.43;;;2.33;;
41875;SDS011;27555;50.808;4.402;2023-04-25T09:49:53;12.30;;;2.50;;
41875;SDS011;27555;50.808;4.402;2023-04-25T09:52:20;9.82;;;2.38;;
41875;SDS011;27555;50.808;4.402;2023-04-25T09:54:48;7.05;;;1.80;;
41875;SDS011;27555;50.808;4.402;2023-04-25T09:57:21;9.15;;;1.88;;
41875;SDS011;27555;50.808;4.402;2023-04-25T09:59:48;10.70;;;2.22;;
41875;SDS011;27555;50.808;4.402;2023-04-25T10:02:18;6.55;;;1.98;;
41875;SDS011;27555;50.808;4.402;2023-04-25T10:04:49;11.43;;;2.53;;
41875;SDS011;27555;50.808;4.402;2023-04-25T10:07:19;11.15;;;2.42;;
41875;SDS011;27555;50.808;4.402;2023-04-25T10:09:48;9.68;;;2.13;;
41875;SDS011;27555;50.808;4.402;2023-04-25T10:12:17;6.50;;;1.87;;
41875;SDS011;27555;50.808;4.402;2023-04-25T10:14:43;4.85;;;1.80;;
41875;SDS011;27555;50.808;4.402;2023-04-25T10:17:10;5.30;;;1.60;;
41875;SDS011;27555;50.808;4.402;2023-04-25T10:19:36;5.53;;;1.70;;
41875;SDS011;27555;50.808;4.402;2023-04-25T10:22:26;6.78;;;1.85;;
41875;SDS011;27555;50.808;4.402;2023-04-25T10:24:57;10.50;;;1.85;;
41875;SDS011;27555;50.808;4.402;2023-04-25T10:27:24;7.45;;;1.98;;
41875;SDS011;27555;50.808;4.402;2023-04-25T10:30:02;11.13;;;2.30;;
41875;SDS011;27555;50.808;4.402;2023-04-25T10:32:31;6.40;;;1.58;;
41875;SDS011;27555;50.808;4.402;2023-04-25T10:35:13;8.50;;;1.87;;
41875;SDS011;27555;50.808;4.402;2023-04-25T10:38:31;5.60;;;1.27;;
41875;SDS011;27555;50.808;4.402;2023-04-25T10:40:40;5.43;;;1.38;;
41875;SDS011;27555;50.808;4.402;2023-04-25T10:46:21;4.57;;;1.55;;
41875;SDS011;27555;50.808;4.402;2023-04-25T10:51:16;16.25;;;1.63;;
41875;SDS011;27555;50.808;4.402;2023-04-25T10:56:30;3.92;;;1.35;;
41875;SDS011;27555;50.808;4.402;2023-04-25T10:59:08;5.55;;;1.13;;
41875;SDS011;27555;50.808;4.402;2023-04-25T11:01:42;8.93;;;1.35;;
41875;SDS011;27555;50.808;4.402;2023-04-25T11:04:25;12.68;;;1.75;;
41875;SDS011;27555;50.808;4.402;2023-04-25T11:09:29;6.43;;;1.73;;
41875;SDS011;27555;50.808;4.402;2023-04-25T11:11:58;10.85;;;2.78;;
41875;SDS011;27555;50.808;4.402;2023-04-25T11:14:25;9.35;;;2.17;;
41875;SDS011;27555;50.808;4.402;2023-04-25T11:16:58;6.40;;;1.30;;
41875;SDS011;27555;50.808;4.402;2023-04-25T11:19:25;4.93;;;1.20;;
41875;SDS011;27555;50.808;4.402;2023-04-25T11:21:54;5.63;;;1.25;;
41875;SDS011;27555;50.808;4.402;2023-04-25T11:24:28;3.88;;;1.33;;
41875;SDS011;27555;50.808;4.402;2023-04-25T11:26:55;6.57;;;1.45;;
41875;SDS011;27555;50.808;4.402;2023-04-25T11:29:22;6.60;;;1.20;;
41875;SDS011;27555;50.808;4.402;2023-04-25T11:31:48;14.10;;;2.03;;
41875;SDS011;27555;50.808;4.402;2023-04-25T11:34:17;6.88;;;2.05;;
41875;SDS011;27555;50.808;4.402;2023-04-25T11:39:10;7.30;;;1.10;;
41875;SDS011;27555;50.808;4.402;2023-04-25T11:41:37;9.43;;;1.30;;
41875;SDS011;27555;50.808;4.402;2023-04-25T11:44:03;5.50;;;1.20;;
41875;SDS011;27555;50.808;4.402;2023-04-25T11:46:29;5.63;;;1.35;;
41875;SDS011;27555;50.808;4.402;2023-04-25T11:48:55;6.85;;;1.30;;
41875;SDS011;27555;50.808;4.402;2023-04-25T11:51:22;5.40;;;1.35;;
41875;SDS011;27555;50.808;4.402;2023-04-25T11:53:47;7.90;;;1.95;;
41875;SDS011;27555;50.808;4.402;2023-04-25T11:56:13;9.75;;;1.17;;
41875;SDS011;27555;50.808;4.402;2023-04-25T11:58:59;5.72;;;1.27;;
41875;SDS011;27555;50.808;4.402;2023-04-25T12:01:32;8.85;;;1.30;;
41875;SDS011;27555;50.808;4.402;2023-04-25T12:06:40;6.60;;;1.50;;
41875;SDS011;27555;50.808;4.402;2023-04-25T12:09:07;3.42;;;1.25;;
41875;SDS011;27555;50.808;4.402;2023-04-25T12:14:11;12.25;;;1.85;;
41875;SDS011;27555;50.808;4.402;2023-04-25T12:16:45;5.20;;;1.17;;
41875;SDS011;27555;50.808;4.402;2023-04-25T12:19:14;7.65;;;1.63;;
41875;SDS011;27555;50.808;4.402;2023-04-25T12:21:41;2.90;;;0.70;;
41875;SDS011;27555;50.808;4.402;2023-04-25T12:24:09;4.57;;;1.10;;
41875;SDS011;27555;50.808;4.402;2023-04-25T12:26:45;7.47;;;1.50;;
41875;SDS011;27555;50.808;4.402;2023-04-25T12:29:18;3.05;;;0.80;;
41875;SDS011;27555;50.808;4.402;2023-04-25T12:31:45;6.80;;;1.20;;
41875;SDS011;27555;50.808;4.402;2023-04-25T12:34:11;6.65;;;1.08;;
41875;SDS011;27555;50.808;4.402;2023-04-25T12:36:37;3.97;;;1.25;;
41875;SDS011;27555;50.808;4.402;2023-04-25T12:39:03;5.78;;;1.27;;
41875;SDS011;27555;50.808;4.402;2023-04-25T12:41:29;8.95;;;2.35;;
41875;SDS011;27555;50.808;4.402;2023-04-25T12:43:55;5.18;;;1.95;;
41875;SDS011;27555;50.808;4.402;2023-04-25T12:46:21;7.55;;;1.50;;
41875;SDS011;27555;50.808;4.402;2023-04-25T12:48:48;3.15;;;0.93;;
41875;SDS011;27555;50.808;4.402;2023-04-25T12:51:13;2.50;;;0.75;;
41875;SDS011;27555;50.808;4.402;2023-04-25T12:53:39;7.65;;;1.77;;
41875;SDS011;27555;50.808;4.402;2023-04-25T12:56:06;16.30;;;1.38;;
41875;SDS011;27555;50.808;4.402;2023-04-25T12:58:35;8.02;;;1.00;;
41875;SDS011;27555;50.808;4.402;2023-04-25T13:01:00;5.93;;;0.75;;
41875;SDS011;27555;50.808;4.402;2023-04-25T13:03:26;11.65;;;1.40;;
41875;SDS011;27555;50.808;4.402;2023-04-25T13:05:52;4.72;;;1.08;;
41875;SDS011;27555;50.808;4.402;2023-04-25T13:08:20;3.13;;;0.98;;
41875;SDS011;27555;50.808;4.402;2023-04-25T13:10:47;7.85;;;1.42;;
41875;SDS011;27555;50.808;4.402;2023-04-25T13:13:13;6.22;;;0.95;;
41875;SDS011;27555;50.808;4.402;2023-04-25T13:15:38;2.40;;;1.00;;
41875;SDS011;27555;50.808;4.402;2023-04-25T13:18:04;5.53;;;1.05;;
41875;SDS011;27555;50.808;4.402;2023-04-25T13:20:32;5.13;;;1.02;;
41875;SDS011;27555;50.808;4.402;2023-04-25T13:22:58;4.43;;;1.05;;
41875;SDS011;27555;50.808;4.402;2023-04-25T13:25:24;7.40;;;1.38;;
41875;SDS011;27555;50.808;4.402;2023-04-25T13:27:50;5.50;;;1.02;;
41875;SDS011;27555;50.808;4.402;2023-04-25T13:30:15;6.18;;;1.15;;
41875;SDS011;27555;50.808;4.402;2023-04-25T13:32:41;5.82;;;0.93;;
41875;SDS011;27555;50.808;4.402;2023-04-25T13:35:11;6.45;;;1.15;;
41875;SDS011;27555;50.808;4.402;2023-04-25T13:37:39;5.47;;;0.95;;
41875;SDS011;27555;50.808;4.402;2023-04-25T13:40:06;4.05;;;0.85;;
41875;SDS011;27555;50.808;4.402;2023-04-25T13:42:34;3.42;;;0.75;;
41875;SDS011;27555;50.808;4.402;2023-04-25T13:45:01;3.15;;;0.77;;
41875;SDS011;27555;50.808;4.402;2023-04-25T13:47:27;3.63;;;0.98;;
41875;SDS011;27555;50.808;4.402;2023-04-25T13:49:53;4.47;;;1.17;;
41875;SDS011;27555;50.808;4.402;2023-04-25T13:52:19;5.20;;;1.23;;
41875;SDS011;27555;50.808;4.402;2023-04-25T13:54:45;4.03;;;1.00;;
41875;SDS011;27555;50.808;4.402;2023-04-25T13:57:11;5.65;;;1.10;;
41875;SDS011;27555;50.808;4.402;2023-04-25T13:59:37;3.05;;;0.70;;
41875;SDS011;27555;50.808;4.402;2023-04-25T14:02:03;1.92;;;0.85;;
41875;SDS011;27555;50.808;4.402;2023-04-25T14:04:29;6.60;;;1.63;;
41875;SDS011;27555;50.808;4.402;2023-04-25T14:06:55;4.50;;;0.98;;
41875;SDS011;27555;50.808;4.402;2023-04-25T14:09:21;6.85;;;0.90;;
41875;SDS011;27555;50.808;4.402;2023-04-25T14:11:50;3.73;;;1.20;;
41875;SDS011;27555;50.808;4.402;2023-04-25T14:14:20;12.25;;;1.63;;
41875;SDS011;27555;50.808;4.402;2023-04-25T14:16:47;9.27;;;1.80;;
41875;SDS011;27555;50.808;4.402;2023-04-25T14:19:16;5.25;;;0.88;;
41875;SDS011;27555;50.808;4.402;2023-04-25T14:21:42;5.72;;;1.05;;
41875;SDS011;27555;50.808;4.402;2023-04-25T14:24:08;9.50;;;1.52;;
41875;SDS011;27555;50.808;4.402;2023-04-25T14:26:36;5.43;;;1.48;;
41875;SDS011;27555;50.808;4.402;2023-04-25T14:29:01;12.48;;;1.30;;
41875;SDS011;27555;50.808;4.402;2023-04-25T14:31:31;5.30;;;0.60;;
41875;SDS011;27555;50.808;4.402;2023-04-25T14:33:57;6.43;;;1.15;;
41875;SDS011;27555;50.808;4.402;2023-04-25T14:36:22;5.15;;;0.85;;
41875;SDS011;27555;50.808;4.402;2023-04-25T14:38:48;6.72;;;1.00;;
41875;SDS011;27555;50.808;4.402;2023-04-25T14:41:13;3.72;;;1.00;;
41875;SDS011;27555;50.808;4.402;2023-04-25T14:43:39;7.22;;;1.42;;
41875;SDS011;27555;50.808;4.402;2023-04-25T14:46:06;5.75;;;1.08;;
41875;SDS011;27555;50.808;4.402;2023-04-25T14:48:32;3.25;;;0.85;;
41875;SDS011;27555;50.808;4.402;2023-04-25T14:50:58;6.88;;;0.90;;
41875;SDS011;27555;50.808;4.402;2023-04-25T14:53:25;9.30;;;1.00;;
41875;SDS011;27555;50.808;4.402;2023-04-25T14:55:50;6.50;;;1.30;;
41875;SDS011;27555;50.808;4.402;2023-04-25T14:58:16;6.00;;;1.20;;